WXM80 ListenWXM80 Stop

You find our weather info also at:

UK Metoffice

WeatherCloud

Weather Underground

Northeastern Weather Network

AWEKAS

Citizen Weather Observer Program (CWOP)

HAMweather, WeatherForYou, PWS Weather


Weather Underground History page Text

Daily Summary for January 24, 2016 Units:  English    Metric   Both
« Previous Day
Next Day »
Daily Weekly Monthly Yearly Custom
  High: Low: Average:
Temperature: 30.9 °F 20.6 °F 26.4 °F
Dew Point: 29.9 °F 19.1 °F 25.3 °F
Humidity: 97 % 94 % 96 %
Wind Speed: 12.4 mph 0.0 mph 5.1 mph
Wind Gust: 19.6 mph - -
Wind:- - WSW
Pressure: 30.08 in 29.68 in -
Precipitation: 0.48 in    
Historical Graphs
 
 
Tabular Data for January 24, 2016
Time Temperature Dew Point Pressure Wind Wind Speed Wind Gust Humidity Rainfall Rate (Hourly)
00:02 28.0 °F 27.3 °F 29.68 in NNW 7.6 mph 9.2 mph 97 % 0.01 in
00:07 27.9 °F 27.2 °F 29.69 in NNE 7.3 mph 12.7 mph 97 % 0.01 in
00:12 27.9 °F 27.2 °F 29.69 in NNW 6.2 mph 10.0 mph 97 % 0.01 in
00:17 27.9 °F 27.2 °F 29.69 in ENE 8.2 mph 15.0 mph 97 % 0.01 in
00:22 27.8 °F 27.1 °F 29.69 in North 8.6 mph 11.5 mph 97 % 0.02 in
00:27 27.6 °F 26.9 °F 29.69 in NNW 9.7 mph 13.8 mph 97 % 0.02 in
00:32 27.5 °F 26.8 °F 29.69 in North 7.5 mph 11.5 mph 97 % 0.02 in
00:37 27.4 °F 26.7 °F 29.69 in North 7.6 mph 12.7 mph 97 % 0.02 in
00:42 27.1 °F 26.4 °F 29.69 in NNW 8.0 mph 15.0 mph 97 % 0.02 in
00:47 27.0 °F 26.3 °F 29.69 in North 9.0 mph 13.0 mph 97 % 0.02 in
00:53 26.9 °F 26.2 °F 29.69 in NNW 8.3 mph 12.7 mph 97 % 0.01 in
01:03 26.6 °F 25.9 °F 29.70 in NNE 9.4 mph 15.0 mph 97 % 0.01 in
01:08 26.5 °F 25.8 °F 29.70 in NNE 9.0 mph 17.3 mph 97 % 0.01 in
01:13 26.4 °F 25.7 °F 29.70 in NE 9.4 mph 18.4 mph 97 % 0.01 in
01:23 26.2 °F 25.5 °F 29.71 in North 10.3 mph 17.3 mph 97 % 0.00 in
01:28 26.2 °F 25.5 °F 29.71 in North 10.5 mph 17.3 mph 97 % 0.00 in
01:38 26.0 °F 25.3 °F 29.71 in North 10.3 mph 12.7 mph 97 % 0.00 in
01:49 25.9 °F 25.2 °F 29.72 in NNE 8.0 mph 11.5 mph 97 % 0.00 in
01:54 25.8 °F 25.1 °F 29.72 in NNE 10.5 mph 18.4 mph 97 % 0.00 in
01:59 25.8 °F 25.1 °F 29.73 in NNW 8.7 mph 16.1 mph 97 % 0.00 in
02:04 25.7 °F 24.7 °F 29.73 in NNE 9.7 mph 15.0 mph 96 % 0.00 in
02:09 25.6 °F 24.6 °F 29.73 in NNE 9.2 mph 17.0 mph 96 % 0.00 in
02:14 25.6 °F 24.6 °F 29.74 in North 8.9 mph 13.8 mph 96 % 0.00 in
02:19 25.5 °F 24.5 °F 29.74 in NNE 6.6 mph 12.0 mph 96 % 0.00 in
02:25 25.4 °F 24.4 °F 29.74 in North 11.3 mph 17.0 mph 96 % 0.00 in
02:30 25.3 °F 24.3 °F 29.74 in North 10.3 mph 18.4 mph 96 % 0.00 in
02:45 25.1 °F 24.1 °F 29.74 in North 7.9 mph 12.7 mph 96 % 0.00 in
02:56 25.0 °F 24.0 °F 29.75 in North 10.1 mph 15.0 mph 96 % 0.00 in
03:09 24.9 °F 23.9 °F 29.75 in North 8.6 mph 13.0 mph 96 % 0.00 in
03:24 24.7 °F 23.7 °F 29.75 in North 9.2 mph 13.8 mph 96 % 0.00 in
03:27 24.6 °F 23.6 °F 29.75 in North 12.2 mph 19.6 mph 96 % 0.00 in
03:33 24.4 °F 23.4 °F 29.76 in NNW 8.7 mph 16.1 mph 96 % 0.00 in
03:43 24.1 °F 23.1 °F 29.76 in NNE 7.5 mph 17.3 mph 96 % 0.00 in
03:53 23.9 °F 22.9 °F 29.76 in NNE 9.9 mph 11.5 mph 96 % 0.00 in
03:59 23.8 °F 22.8 °F 29.76 in NNE 7.3 mph 9.0 mph 96 % 0.00 in
04:04 23.6 °F 22.6 °F 29.76 in NNW 9.1 mph 17.3 mph 96 % 0.00 in
04:19 23.1 °F 21.9 °F 29.77 in NNW 5.6 mph 15.0 mph 95 % 0.00 in
04:24 22.9 °F 21.7 °F 29.78 in North 6.3 mph 11.5 mph 95 % 0.00 in
04:26 22.8 °F 21.6 °F 29.78 in North 9.5 mph 19.6 mph 95 % 0.00 in
04:31 22.6 °F 21.4 °F 29.78 in North 10.4 mph 15.0 mph 95 % 0.00 in
04:37 22.5 °F 21.3 °F 29.79 in NNE 7.8 mph 10.4 mph 95 % 0.00 in
04:42 22.4 °F 21.2 °F 29.79 in NE 6.0 mph 12.7 mph 95 % 0.00 in
04:47 22.2 °F 21.0 °F 29.79 in NNE 4.7 mph 9.2 mph 95 % 0.00 in
04:52 22.1 °F 20.9 °F 29.80 in NNE 4.6 mph 17.3 mph 95 % 0.00 in
04:57 21.9 °F 20.7 °F 29.79 in NE 6.5 mph 11.5 mph 95 % 0.00 in
05:02 21.7 °F 20.5 °F 29.79 in North 6.6 mph 11.5 mph 95 % 0.00 in
05:07 21.6 °F 20.4 °F 29.80 in NNW 6.3 mph 9.2 mph 95 % 0.00 in
05:12 21.6 °F 20.4 °F 29.80 in NNW 8.5 mph 11.5 mph 95 % 0.00 in
05:28 21.4 °F 20.2 °F 29.81 in NNE 6.9 mph 12.7 mph 95 % 0.00 in
05:33 21.3 °F 20.1 °F 29.81 in NNW 6.0 mph 15.0 mph 95 % 0.00 in
05:38 21.3 °F 20.1 °F 29.82 in North 5.9 mph 11.5 mph 95 % 0.00 in
05:43 21.3 °F 20.1 °F 29.82 in NNE 5.3 mph 11.5 mph 95 % 0.00 in
05:48 21.3 °F 20.1 °F 29.82 in NNE 8.8 mph 13.8 mph 95 % 0.00 in
05:53 21.3 °F 20.1 °F 29.82 in North 11.0 mph 18.4 mph 95 % 0.00 in
05:58 21.3 °F 20.1 °F 29.82 in NNE 9.1 mph 12.7 mph 95 % 0.00 in
06:03 21.3 °F 20.1 °F 29.82 in NE 11.1 mph 17.3 mph 95 % 0.00 in
06:08 21.3 °F 20.1 °F 29.82 in NNE 10.4 mph 17.3 mph 95 % 0.00 in
06:13 21.3 °F 19.8 °F 29.82 in NNW 8.8 mph 11.5 mph 94 % 0.00 in
06:19 21.3 °F 19.8 °F 29.82 in North 10.3 mph 15.0 mph 94 % 0.00 in
06:24 21.3 °F 20.1 °F 29.82 in NNE 12.4 mph 13.8 mph 95 % 0.00 in
06:29 21.4 °F 19.9 °F 29.83 in NNW 9.0 mph 17.0 mph 94 % 0.00 in
06:34 21.4 °F 20.2 °F 29.83 in North 11.0 mph 18.4 mph 95 % 0.00 in
06:39 21.4 °F 19.9 °F 29.83 in NNE 7.2 mph 13.0 mph 94 % 0.00 in
06:44 21.4 °F 19.9 °F 29.84 in NNW 8.4 mph 11.5 mph 94 % 0.00 in
06:49 21.4 °F 19.9 °F 29.84 in NE 8.4 mph 11.5 mph 94 % 0.00 in
06:54 21.4 °F 19.9 °F 29.84 in NNE 7.4 mph 13.8 mph 94 % 0.00 in
06:59 21.4 °F 19.9 °F 29.84 in NE 9.5 mph 18.4 mph 94 % 0.00 in
07:04 21.3 °F 19.8 °F 29.85 in NNE 11.7 mph 15.0 mph 94 % 0.00 in
07:10 21.3 °F 19.8 °F 29.85 in NNW 8.1 mph 12.7 mph 94 % 0.00 in
07:15 21.2 °F 19.7 °F 29.86 in NNE 6.5 mph 11.5 mph 94 % 0.00 in
07:20 21.1 °F 19.6 °F 29.87 in NNE 7.7 mph 15.0 mph 94 % 0.00 in
07:25 20.8 °F 19.3 °F 29.87 in NNE 7.6 mph 11.5 mph 94 % 0.00 in
07:35 20.7 °F 19.2 °F 29.87 in NNE 5.0 mph 11.5 mph 94 % 0.00 in
07:40 20.7 °F 19.2 °F 29.88 in North 5.0 mph 8.1 mph 94 % 0.00 in
07:45 20.7 °F 19.2 °F 29.87 in NW 5.9 mph 10.4 mph 94 % 0.00 in
07:50 20.7 °F 19.2 °F 29.88 in NNW 4.4 mph 10.4 mph 94 % 0.00 in
07:55 20.7 °F 19.2 °F 29.88 in North 7.0 mph 13.0 mph 94 % 0.00 in
08:01 20.6 °F 19.1 °F 29.88 in NNW 6.3 mph 12.7 mph 94 % 0.00 in
08:06 20.7 °F 19.2 °F 29.88 in NNW 7.0 mph 11.5 mph 94 % 0.00 in
08:11 20.8 °F 19.3 °F 29.89 in NNW 8.1 mph 12.7 mph 94 % 0.00 in
08:16 20.9 °F 19.4 °F 29.89 in North 7.1 mph 11.5 mph 94 % 0.00 in
08:21 21.0 °F 19.5 °F 29.89 in NNE 7.7 mph 15.0 mph 94 % 0.00 in
08:26 21.2 °F 19.7 °F 29.90 in North 6.1 mph 12.7 mph 94 % 0.00 in
08:31 21.3 °F 19.8 °F 29.90 in North 5.7 mph 16.1 mph 94 % 0.00 in
08:36 21.3 °F 19.8 °F 29.90 in North 7.6 mph 12.7 mph 94 % 0.00 in
08:46 21.7 °F 20.2 °F 29.90 in NNE 5.5 mph 9.2 mph 94 % 0.00 in
08:52 21.9 °F 20.4 °F 29.91 in NE 7.6 mph 11.5 mph 94 % 0.00 in
08:57 22.1 °F 20.6 °F 29.90 in North 7.8 mph 12.7 mph 94 % 0.00 in
09:02 22.4 °F 20.9 °F 29.91 in NNE 6.7 mph 10.4 mph 94 % 0.00 in
09:07 22.6 °F 21.1 °F 29.91 in NNW 6.8 mph 13.0 mph 94 % 0.00 in
09:12 22.6 °F 21.1 °F 29.91 in North 8.4 mph 12.7 mph 94 % 0.00 in
09:17 22.9 °F 21.7 °F 29.91 in NW 3.8 mph 6.9 mph 95 % 0.00 in
09:22 23.2 °F 21.7 °F 29.91 in NNW 6.9 mph 12.7 mph 94 % 0.00 in
09:27 23.4 °F 21.9 °F 29.91 in North 4.9 mph 11.0 mph 94 % 0.00 in
09:32 23.5 °F 22.3 °F 29.91 in WNW 3.9 mph 6.9 mph 95 % 0.00 in
09:43 24.0 °F 22.8 °F 29.92 in WNW 5.9 mph 9.2 mph 95 % 0.00 in
09:48 24.1 °F 22.9 °F 29.92 in NW 4.3 mph 9.2 mph 95 % 0.00 in
09:53 24.4 °F 23.2 °F 29.92 in NW 4.7 mph 11.5 mph 95 % 0.00 in
09:58 24.8 °F 23.6 °F 29.92 in NW 3.0 mph 6.9 mph 95 % 0.00 in
10:03 25.1 °F 23.9 °F 29.92 in North 3.5 mph 5.8 mph 95 % 0.00 in
10:08 25.4 °F 24.2 °F 29.92 in NW 5.7 mph 11.5 mph 95 % 0.00 in
10:13 25.6 °F 24.4 °F 29.92 in NNW 5.1 mph 11.5 mph 95 % 0.00 in
10:18 25.7 °F 24.5 °F 29.92 in WNW 2.4 mph 9.2 mph 95 % 0.00 in
10:23 25.9 °F 24.7 °F 29.92 in WNW 5.9 mph 11.5 mph 95 % 0.00 in
10:28 26.1 °F 24.9 °F 29.92 in NW 5.6 mph 10.4 mph 95 % 0.00 in
10:34 26.3 °F 25.1 °F 29.92 in WNW 3.8 mph 11.5 mph 95 % 0.00 in
10:39 26.3 °F 25.1 °F 29.92 in WNW 6.0 mph 11.5 mph 95 % 0.00 in
10:49 26.3 °F 25.1 °F 29.92 in NNE 5.0 mph 9.2 mph 95 % 0.00 in
10:54 26.3 °F 25.1 °F 29.91 in NW 7.5 mph 11.0 mph 95 % 0.00 in
10:59 26.5 °F 25.3 °F 29.91 in NNW 3.4 mph 6.9 mph 95 % 0.00 in
11:04 26.6 °F 25.4 °F 29.91 in NNW 6.6 mph 9.2 mph 95 % 0.00 in
11:09 26.5 °F 25.3 °F 29.91 in NNW 4.4 mph 5.8 mph 95 % 0.00 in
11:14 26.5 °F 25.3 °F 29.91 in NW 4.1 mph 9.2 mph 95 % 0.00 in
11:19 26.6 °F 25.4 °F 29.90 in North 4.9 mph 9.2 mph 95 % 0.00 in
11:25 26.5 °F 25.3 °F 29.90 in NW 7.3 mph 10.0 mph 95 % 0.00 in
11:30 26.3 °F 25.1 °F 29.90 in WNW 2.6 mph 10.4 mph 95 % 0.00 in
11:35 26.3 °F 25.1 °F 29.91 in WNW 5.4 mph 10.0 mph 95 % 0.00 in
11:40 26.2 °F 25.0 °F 29.91 in NW 3.0 mph 4.6 mph 95 % 0.00 in
11:45 26.4 °F 25.2 °F 29.91 in NNW 5.0 mph 10.4 mph 95 % 0.00 in
11:50 26.3 °F 25.1 °F 29.90 in NW 3.2 mph 5.0 mph 95 % 0.00 in
11:55 26.2 °F 25.0 °F 29.91 in WNW 2.6 mph 5.0 mph 95 % 0.00 in
12:00 26.3 °F 25.1 °F 29.91 in North 4.5 mph 8.1 mph 95 % 0.00 in
12:05 26.3 °F 25.1 °F 29.91 in WNW 5.9 mph 10.0 mph 95 % 0.00 in
12:10 26.4 °F 25.2 °F 29.91 in North 4.9 mph 9.2 mph 95 % 0.00 in
12:16 26.7 °F 25.5 °F 29.91 in NW 2.2 mph 4.6 mph 95 % 0.00 in
12:21 27.0 °F 25.8 °F 29.90 in NW 2.9 mph 5.8 mph 95 % 0.00 in
12:26 27.3 °F 26.1 °F 29.90 in NNW 4.8 mph 8.1 mph 95 % 0.00 in
12:31 27.4 °F 26.2 °F 29.91 in WNW 6.4 mph 9.2 mph 95 % 0.00 in
12:41 27.8 °F 26.6 °F 29.91 in WNW 7.6 mph 12.0 mph 95 % 0.00 in
12:46 27.9 °F 26.7 °F 29.91 in WNW 4.0 mph 8.1 mph 95 % 0.00 in
12:51 28.2 °F 27.2 °F 29.90 in NW 5.2 mph 8.1 mph 96 % 0.00 in
13:01 28.4 °F 27.2 °F 29.91 in West 7.0 mph 10.4 mph 95 % 0.00 in
13:07 28.5 °F 27.3 °F 29.90 in NW 4.4 mph 6.9 mph 95 % 0.00 in
13:12 28.9 °F 27.9 °F 29.91 in NW 2.9 mph 10.4 mph 96 % 0.00 in
13:17 29.3 °F 28.3 °F 29.90 in WNW 5.3 mph 10.4 mph 96 % 0.00 in
13:22 29.3 °F 28.3 °F 29.91 in NW 2.8 mph 7.0 mph 96 % 0.00 in
13:27 29.6 °F 28.6 °F 29.90 in NNW 2.4 mph 4.6 mph 96 % 0.00 in
13:32 29.8 °F 28.8 °F 29.90 in NW 5.5 mph 8.1 mph 96 % 0.00 in
13:37 30.0 °F 29.0 °F 29.90 in NW 6.0 mph 9.2 mph 96 % 0.00 in
13:42 30.3 °F 29.3 °F 29.90 in WNW 6.4 mph 10.0 mph 96 % 0.00 in
13:47 30.5 °F 29.5 °F 29.91 in NW 7.6 mph 10.4 mph 96 % 0.00 in
13:52 30.6 °F 29.6 °F 29.90 in NW 4.8 mph 10.4 mph 96 % 0.00 in
13:58 30.6 °F 29.6 °F 29.90 in NW 3.3 mph 8.1 mph 96 % 0.00 in
14:03 30.7 °F 29.7 °F 29.91 in West 5.2 mph 10.4 mph 96 % 0.00 in
14:08 30.7 °F 29.7 °F 29.91 in NW 3.9 mph 6.9 mph 96 % 0.03 in
14:13 30.8 °F 29.8 °F 29.91 in NW 6.1 mph 11.5 mph 96 % 0.06 in
14:18 30.9 °F 29.9 °F 29.91 in WNW 3.7 mph 6.9 mph 96 % 0.10 in
14:23 30.9 °F 29.9 °F 29.91 in NW 2.7 mph 4.6 mph 96 % 0.13 in
14:33 30.8 °F 29.8 °F 29.91 in NW 6.0 mph 8.1 mph 96 % 0.19 in
14:38 30.6 °F 29.6 °F 29.92 in NW 3.7 mph 5.8 mph 96 % 0.21 in
14:44 30.5 °F 29.5 °F 29.92 in NW 4.2 mph 9.2 mph 96 % 0.23 in
14:54 30.3 °F 29.3 °F 29.92 in WNW 3.2 mph 7.0 mph 96 % 0.26 in
14:59 30.2 °F 29.2 °F 29.92 in NW 2.9 mph 4.6 mph 96 % 0.26 in
15:04 30.1 °F 29.1 °F 29.93 in NNW 6.7 mph 11.5 mph 96 % 0.28 in
15:09 30.0 °F 29.0 °F 29.93 in NW 3.3 mph 8.1 mph 96 % 0.25 in
15:14 30.0 °F 29.0 °F 29.93 in NW 3.2 mph 4.6 mph 96 % 0.27 in
15:19 29.9 °F 28.9 °F 29.93 in WNW 2.9 mph 6.9 mph 96 % 0.25 in
15:24 29.9 °F 28.9 °F 29.93 in NW 5.1 mph 9.2 mph 96 % 0.23 in
15:29 29.8 °F 28.8 °F 29.94 in NW 4.0 mph 7.0 mph 96 % 0.22 in
15:35 29.7 °F 28.7 °F 29.94 in WNW 1.5 mph 5.8 mph 96 % 0.20 in
15:40 29.7 °F 28.7 °F 29.93 in NNW 3.2 mph 6.0 mph 96 % 0.18 in
15:45 29.7 °F 28.7 °F 29.94 in NNW 3.6 mph 7.0 mph 96 % 0.17 in
15:50 29.6 °F 28.6 °F 29.94 in WNW 3.5 mph 8.1 mph 96 % 0.17 in
15:55 29.6 °F 28.6 °F 29.94 in NW 4.7 mph 7.0 mph 96 % 0.16 in
16:00 29.6 °F 28.6 °F 29.94 in NW 4.1 mph 8.1 mph 96 % 0.16 in
16:05 29.6 °F 28.6 °F 29.95 in NW 1.4 mph 3.5 mph 96 % 0.15 in
16:10 29.6 °F 28.6 °F 29.95 in WNW 4.3 mph 6.9 mph 96 % 0.14 in
16:15 29.6 °F 28.6 °F 29.96 in NNW 3.5 mph 7.0 mph 96 % 0.10 in
16:20 29.6 °F 28.6 °F 29.95 in NW 4.8 mph 6.9 mph 96 % 0.09 in
16:26 29.6 °F 28.9 °F 29.95 in WSW 4.2 mph 5.8 mph 97 % 0.08 in
16:31 29.7 °F 29.0 °F 29.96 in WNW 4.8 mph 9.2 mph 97 % 0.07 in
16:36 29.6 °F 28.9 °F 29.95 in NW 2.7 mph 6.9 mph 97 % 0.07 in
16:41 29.6 °F 28.6 °F 29.96 in WNW 2.3 mph 3.5 mph 96 % 0.06 in
16:46 29.6 °F 28.9 °F 29.96 in West 2.6 mph 5.8 mph 97 % 0.05 in
16:51 29.6 °F 28.9 °F 29.96 in NW 2.7 mph 5.0 mph 97 % 0.04 in
16:56 29.6 °F 28.9 °F 29.96 in WNW 3.5 mph 6.9 mph 97 % 0.04 in
17:01 29.6 °F 28.9 °F 29.97 in WNW 0.6 mph 4.6 mph 97 % 0.04 in
17:06 29.6 °F 28.9 °F 29.97 in WNW 2.5 mph 3.5 mph 97 % 0.03 in
17:11 29.5 °F 28.8 °F 29.97 in NW 3.3 mph 5.0 mph 97 % 0.03 in
17:17 29.4 °F 28.7 °F 29.98 in WNW 4.2 mph 6.9 mph 97 % 0.03 in
17:22 29.3 °F 28.6 °F 29.98 in WNW 3.3 mph 5.8 mph 97 % 0.02 in
17:27 29.2 °F 28.5 °F 29.99 in NW 4.4 mph 8.1 mph 97 % 0.02 in
17:32 29.2 °F 28.5 °F 29.98 in NW 2.4 mph 5.0 mph 97 % 0.01 in
17:37 29.2 °F 28.5 °F 29.99 in NW 2.6 mph 5.0 mph 97 % 0.01 in
17:42 29.1 °F 28.4 °F 29.99 in NW 3.3 mph 6.9 mph 97 % 0.01 in
17:47 29.0 °F 28.0 °F 29.99 in NNW 3.2 mph 6.9 mph 96 % 0.01 in
17:52 28.9 °F 27.9 °F 29.99 in WNW 2.2 mph 6.9 mph 96 % 0.01 in
17:57 28.9 °F 28.2 °F 29.99 in NW 4.2 mph 8.1 mph 97 % 0.01 in
18:02 28.8 °F 27.8 °F 30.00 in North 3.8 mph 7.0 mph 96 % 0.00 in
18:08 28.8 °F 27.8 °F 30.00 in WNW 2.3 mph 3.5 mph 96 % 0.00 in
18:13 28.8 °F 27.8 °F 30.00 in WNW 0.6 mph 3.5 mph 96 % 0.00 in
18:18 28.8 °F 28.1 °F 30.00 in WNW 4.7 mph 9.2 mph 97 % 0.00 in
18:23 28.8 °F 28.1 °F 30.00 in WNW 1.9 mph 4.6 mph 97 % 0.00 in
18:28 28.8 °F 28.1 °F 30.00 in NNW 2.2 mph 3.5 mph 97 % 0.00 in
18:33 28.8 °F 28.1 °F 30.00 in NW 1.7 mph 3.5 mph 97 % 0.00 in
18:38 28.7 °F 28.0 °F 30.00 in WNW 0.5 mph 3.5 mph 97 % 0.00 in
18:43 28.7 °F 28.0 °F 30.00 in NW 0.9 mph 1.2 mph 97 % 0.00 in
18:48 28.5 °F 27.8 °F 30.00 in NW 0.6 mph 3.5 mph 97 % 0.00 in
18:53 28.5 °F 27.8 °F 30.00 in Calm     97 % 0.00 in
18:58 28.5 °F 27.8 °F 30.01 in West 0.7 mph 4.0 mph 97 % 0.00 in
19:09 28.3 °F 27.6 °F 30.01 in NNW 1.8 mph 3.5 mph 97 % 0.00 in
19:14 28.2 °F 27.5 °F 30.01 in NW 1.3 mph 4.6 mph 97 % 0.00 in
19:19 28.1 °F 27.4 °F 30.02 in WNW 1.4 mph 3.5 mph 97 % 0.00 in
19:24 28.1 °F 27.4 °F 30.02 in NW 1.5 mph 3.5 mph 97 % 0.00 in
19:34 28.1 °F 27.4 °F 30.02 in NNW 3.7 mph 5.0 mph 97 % 0.00 in
19:39 28.1 °F 27.4 °F 30.02 in NW 0.2 mph 3.5 mph 97 % 0.00 in
19:44 28.1 °F 27.4 °F 30.02 in NW 2.8 mph 4.6 mph 97 % 0.00 in
19:49 28.0 °F 27.3 °F 30.03 in WNW 2.4 mph 4.6 mph 97 % 0.00 in
19:54 28.0 °F 27.3 °F 30.02 in WNW 1.5 mph 4.6 mph 97 % 0.00 in
20:00 28.0 °F 27.0 °F 30.02 in NNW 0.8 mph 3.5 mph 96 % 0.00 in
20:05 27.9 °F 26.9 °F 30.03 in NW 0.9 mph 1.2 mph 96 % 0.00 in
20:10 27.9 °F 26.9 °F 30.02 in NW 0.2 mph 3.5 mph 96 % 0.00 in
20:15 27.9 °F 26.9 °F 30.03 in WNW 1.5 mph 4.0 mph 96 % 0.00 in
20:20 27.9 °F 27.2 °F 30.03 in NW 1.0 mph 2.3 mph 97 % 0.00 in
20:25 27.9 °F 27.2 °F 30.03 in NNW 2.6 mph 4.0 mph 97 % 0.00 in
20:30 27.8 °F 26.8 °F 30.03 in West 1.4 mph 3.5 mph 96 % 0.00 in
20:35 27.7 °F 26.7 °F 30.03 in NW 1.6 mph 4.6 mph 96 % 0.00 in
20:40 27.7 °F 26.7 °F 30.03 in NW 0.8 mph 2.3 mph 96 % 0.00 in
20:46 27.7 °F 27.0 °F 30.04 in NNW 3.2 mph 4.6 mph 97 % 0.00 in
20:51 27.6 °F 26.6 °F 30.04 in NW 0.3 mph 3.5 mph 96 % 0.00 in
20:56 27.6 °F 26.6 °F 30.04 in NNW 1.9 mph 6.9 mph 96 % 0.00 in
21:01 27.6 °F 26.6 °F 30.04 in NNE 1.6 mph 3.5 mph 96 % 0.00 in
21:06 27.6 °F 26.6 °F 30.04 in NNW 4.7 mph 8.1 mph 96 % 0.00 in
21:11 27.6 °F 26.6 °F 30.05 in WNW 3.7 mph 5.8 mph 96 % 0.00 in
21:16 27.6 °F 26.6 °F 30.05 in NNW 4.1 mph 6.9 mph 96 % 0.00 in
21:21 27.5 °F 26.5 °F 30.05 in West 1.8 mph 6.0 mph 96 % 0.00 in
21:26 27.5 °F 26.5 °F 30.05 in NW 5.0 mph 8.1 mph 96 % 0.00 in
21:31 27.6 °F 26.6 °F 30.05 in NNW 2.3 mph 6.0 mph 96 % 0.00 in
21:37 27.6 °F 26.6 °F 30.05 in WNW 3.8 mph 6.0 mph 96 % 0.00 in
21:42 27.6 °F 26.6 °F 30.05 in WNW 4.4 mph 9.2 mph 96 % 0.00 in
21:47 27.6 °F 26.6 °F 30.05 in NW 1.9 mph 4.6 mph 96 % 0.00 in
21:52 27.7 °F 26.7 °F 30.06 in North 2.9 mph 5.8 mph 96 % 0.00 in
21:57 27.6 °F 26.6 °F 30.06 in NW 2.3 mph 6.9 mph 96 % 0.00 in
22:02 27.7 °F 26.7 °F 30.06 in NW 2.9 mph 5.8 mph 96 % 0.00 in
22:07 27.7 °F 26.7 °F 30.06 in WNW 3.5 mph 7.0 mph 96 % 0.00 in
22:12 27.7 °F 26.7 °F 30.06 in West 2.3 mph 4.6 mph 96 % 0.00 in
22:17 27.7 °F 26.7 °F 30.05 in WNW 4.3 mph 8.1 mph 96 % 0.00 in
22:22 27.7 °F 26.7 °F 30.06 in WNW 3.4 mph 4.6 mph 96 % 0.00 in
22:28 27.7 °F 26.7 °F 30.06 in WNW 1.3 mph 8.1 mph 96 % 0.00 in
22:33 27.8 °F 26.8 °F 30.06 in WNW 5.4 mph 9.2 mph 96 % 0.00 in
22:38 27.8 °F 26.8 °F 30.06 in WNW 2.2 mph 6.9 mph 96 % 0.00 in
22:43 27.8 °F 26.8 °F 30.06 in WNW 3.7 mph 5.8 mph 96 % 0.00 in
22:53 27.8 °F 26.8 °F 30.07 in North 1.5 mph 3.5 mph 96 % 0.00 in
22:58 27.8 °F 26.8 °F 30.07 in NNW 2.6 mph 4.6 mph 96 % 0.00 in
23:03 27.8 °F 26.8 °F 30.07 in WNW 2.9 mph 4.6 mph 96 % 0.00 in
23:08 27.8 °F 26.8 °F 30.07 in WNW 2.4 mph 6.9 mph 96 % 0.00 in
23:13 27.8 °F 26.8 °F 30.08 in NW 1.7 mph 3.5 mph 96 % 0.00 in
23:19 27.8 °F 26.8 °F 30.08 in NNW 1.5 mph 4.6 mph 96 % 0.00 in
23:24 27.9 °F 26.9 °F 30.07 in WNW 3.1 mph 8.1 mph 96 % 0.00 in
23:39 28.0 °F 27.0 °F 30.08 in WNW 1.0 mph 3.0 mph 96 % 0.00 in
23:44 28.1 °F 27.1 °F 30.08 in NW 0.5 mph 2.3 mph 96 % 0.00 in
23:49 28.1 °F 27.4 °F 30.08 in WNW 0.2 mph 3.5 mph 97 % 0.00 in
23:54 28.1 °F 27.4 °F 30.07 in WNW 2.3 mph 4.6 mph 97 % 0.00 in
23:59 28.2 °F 27.5 °F 30.08 in NW 0.8 mph 2.3 mph 97 % 0.00 in
Crab Meadow Weather
Compliments of Weather Underground - 2.75 mb

Script developed by  Jim McMurry - jmcmurry@mwt.net Adapted for the template by  Wim van der Kuil - Leuven-Template.eu

Weather Terms: High Wind Warning - Sustained winds of 40 mph or greater for a duration of one hour or longer or gusts to 58 mph or greater.